createdAt,value
2022-09-23T00:01:26.402Z,10.37
2022-09-23T00:03:54.537Z,10.39
2022-09-23T00:06:23.903Z,10.38
2022-09-23T00:08:52.578Z,10.35
2022-09-23T00:11:28.805Z,10.31
2022-09-23T00:13:59.317Z,10.28
2022-09-23T00:16:35.046Z,10.24
2022-09-23T00:19:04.477Z,10.21
2022-09-23T00:21:32.476Z,10.18
2022-09-23T00:24:00.388Z,10.23
2022-09-23T00:26:28.278Z,10.15
2022-09-23T00:28:56.094Z,10.09
2022-09-23T00:31:26.205Z,10.07
2022-09-23T00:33:59.043Z,10.06
2022-09-23T00:36:28.838Z,10.03
2022-09-23T00:38:56.738Z,10.03
2022-09-23T00:41:25.189Z,10.03
2022-09-23T00:43:58.422Z,10.06
2022-09-23T00:46:43.609Z,10.10
2022-09-23T00:49:16.557Z,10.11
2022-09-23T00:51:54.525Z,10.12
2022-09-23T00:54:25.095Z,10.10
2022-09-23T00:56:54.486Z,10.02
2022-09-23T00:59:24.505Z,9.97
2022-09-23T01:01:54.912Z,9.86
2022-09-23T01:04:24.645Z,9.87
2022-09-23T01:07:10.903Z,9.92
2022-09-23T01:09:38.622Z,9.96
2022-09-23T01:12:25.097Z,9.93
2022-09-23T01:15:17.227Z,9.85
2022-09-23T01:17:54.018Z,9.81
2022-09-23T01:20:59.365Z,9.86
2022-09-23T01:23:42.298Z,9.91
2022-09-23T01:26:30.245Z,9.92
2022-09-23T01:29:02.341Z,9.91
2022-09-23T01:31:35.507Z,9.93
2022-09-23T01:34:09.228Z,9.90
2022-09-23T01:36:36.945Z,9.93
2022-09-23T01:39:20.021Z,9.97
2022-09-23T01:42:07.303Z,9.98
2022-09-23T01:44:47.755Z,9.99
2022-09-23T01:47:21.283Z,10.05
2022-09-23T01:49:59.251Z,10.09
2022-09-23T01:52:41.751Z,10.11
2022-09-23T01:55:12.443Z,10.12
2022-09-23T01:57:49.377Z,10.16
2022-09-23T02:00:21.132Z,10.21
2022-09-23T02:02:57.799Z,10.21
2022-09-23T02:05:30.635Z,10.21
2022-09-23T02:08:07.262Z,10.16
2022-09-23T02:10:42.208Z,10.17
2022-09-23T02:13:34.341Z,10.13
2022-09-23T02:16:09.028Z,10.10
2022-09-23T02:18:53.508Z,10.05
2022-09-23T02:21:25.210Z,9.97
2022-09-23T02:24:00.818Z,9.90
2022-09-23T02:26:53.515Z,9.80
2022-09-23T02:29:23.966Z,9.78
2022-09-23T02:32:09.183Z,9.77
2022-09-23T02:34:47.770Z,9.67
2022-09-23T02:37:21.224Z,9.63
2022-09-23T02:39:54.360Z,9.66
2022-09-23T02:42:29.291Z,9.63
2022-09-23T02:44:58.976Z,9.58
2022-09-23T02:47:31.881Z,9.49
2022-09-23T02:49:59.655Z,9.39
2022-09-23T02:52:27.597Z,9.35
2022-09-23T02:54:56.700Z,9.35
2022-09-23T02:57:24.654Z,9.32
2022-09-23T02:59:52.713Z,9.25
2022-09-23T03:02:23.461Z,9.22
2022-09-23T03:05:12.958Z,9.18
2022-09-23T03:08:02.960Z,9.15
2022-09-23T03:10:54.679Z,9.08
2022-09-23T03:14:07.253Z,9.03
2022-09-23T03:16:48.053Z,9.06
2022-09-23T03:19:41.514Z,9.08
2022-09-23T03:22:18.651Z,9.05
2022-09-23T03:24:53.181Z,9.06
2022-09-23T03:27:27.712Z,9.08
2022-09-23T03:29:57.068Z,9.14
2022-09-23T03:32:28.052Z,9.18
2022-09-23T03:35:00.462Z,9.25
2022-09-23T03:37:57.402Z,9.34
2022-09-23T03:40:32.123Z,9.42
2022-09-23T03:43:02.778Z,9.45
2022-09-23T03:45:33.125Z,9.44
2022-09-23T03:48:01.702Z,9.44
2022-09-23T03:50:29.839Z,9.44
2022-09-23T03:52:58.525Z,9.45
2022-09-23T03:55:26.243Z,9.43
2022-09-23T03:57:55.792Z,9.45
2022-09-23T04:00:23.585Z,9.49
2022-09-23T04:02:51.287Z,9.49
2022-09-23T04:05:19.091Z,9.45
2022-09-23T04:07:48.222Z,9.44
2022-09-23T04:10:15.989Z,9.47
2022-09-23T04:12:43.683Z,9.45
2022-09-23T04:15:11.719Z,9.44
2022-09-23T04:17:39.738Z,9.41
2022-09-23T04:20:07.892Z,9.39
2022-09-23T04:22:38.563Z,9.36
2022-09-23T04:25:06.937Z,9.23
2022-09-23T04:27:37.766Z,9.09
2022-09-23T04:30:07.091Z,9.03
2022-09-23T04:32:35.787Z,9.03
2022-09-23T04:35:04.436Z,8.97
2022-09-23T04:37:32.304Z,8.93
2022-09-23T04:40:00.488Z,8.89
2022-09-23T04:42:30.088Z,8.88
2022-09-23T04:44:58.047Z,8.88
2022-09-23T04:47:26.080Z,8.87
2022-09-23T04:49:57.763Z,8.86
2022-09-23T04:52:27.399Z,8.85
2022-09-23T04:54:55.126Z,8.85
2022-09-23T04:57:23.191Z,8.84
2022-09-23T04:59:50.933Z,8.87
2022-09-23T05:02:18.848Z,8.90
2022-09-23T05:04:46.932Z,8.94
2022-09-23T05:07:14.615Z,8.98
2022-09-23T05:09:42.317Z,8.98
2022-09-23T05:12:10.146Z,9.01
2022-09-23T05:14:40.663Z,9.04
2022-09-23T05:17:08.368Z,9.07
2022-09-23T05:19:36.399Z,9.03
2022-09-23T05:22:05.366Z,9.04
2022-09-23T05:24:33.064Z,9.08
2022-09-23T05:27:01.189Z,9.05
2022-09-23T05:29:29.260Z,9.05
2022-09-23T05:31:56.984Z,9.04
2022-09-23T05:34:24.858Z,9.01
2022-09-23T05:36:52.710Z,9.00
2022-09-23T05:39:20.422Z,8.97
2022-09-23T05:41:49.083Z,8.94
2022-09-23T05:44:16.832Z,9.00
2022-09-23T05:46:44.679Z,9.04
2022-09-23T05:49:12.422Z,9.06
2022-09-23T05:51:40.213Z,9.07
2022-09-23T05:54:08.437Z,9.14
2022-09-23T05:56:37.412Z,9.23
2022-09-23T05:59:07.009Z,9.31
2022-09-23T06:01:36.818Z,9.34
2022-09-23T06:04:06.542Z,9.40
2022-09-23T06:06:39.795Z,9.50
2022-09-23T06:09:13.453Z,9.65
2022-09-23T06:11:42.159Z,9.72
2022-09-23T06:14:13.989Z,9.74
2022-09-23T06:16:43.144Z,9.82
2022-09-23T06:19:11.022Z,9.87
2022-09-23T06:21:40.783Z,9.91
2022-09-23T06:24:11.958Z,9.91
2022-09-23T06:26:42.856Z,9.88
2022-09-23T06:29:12.095Z,9.88
2022-09-23T06:31:41.696Z,9.91
2022-09-23T06:34:13.462Z,9.99
2022-09-23T06:36:45.515Z,9.98
2022-09-23T06:39:15.241Z,9.95
2022-09-23T06:41:44.727Z,9.94
2022-09-23T06:44:15.745Z,9.89
2022-09-23T06:46:48.517Z,9.89
2022-09-23T06:49:16.445Z,9.95
2022-09-23T06:51:44.232Z,10.03
2022-09-23T06:54:11.956Z,10.08
2022-09-23T06:56:40.289Z,10.09
2022-09-23T06:59:11.431Z,10.14
2022-09-23T07:01:39.315Z,10.23
2022-09-23T07:04:07.957Z,10.31
2022-09-23T07:06:36.232Z,10.41
2022-09-23T07:09:05.786Z,10.59
2022-09-23T07:11:33.753Z,10.74
2022-09-23T07:14:02.001Z,10.81
2022-09-23T07:16:29.832Z,10.86
2022-09-23T07:18:57.726Z,10.85
2022-09-23T07:21:26.135Z,10.81
2022-09-23T07:23:55.296Z,10.83
2022-09-23T07:26:23.003Z,10.77
2022-09-23T07:29:04.574Z,10.76
2022-09-23T07:31:39.756Z,10.86
2022-09-23T07:34:11.693Z,10.84
2022-09-23T07:36:41.101Z,10.81
2022-09-23T07:39:12.143Z,10.83
2022-09-23T07:41:41.615Z,10.91
2022-09-23T07:44:11.124Z,10.96
2022-09-23T07:46:38.927Z,11.03
2022-09-23T07:49:06.955Z,11.05
2022-09-23T07:51:37.184Z,11.11
2022-09-23T07:54:10.038Z,11.20
2022-09-23T07:56:38.963Z,11.21
2022-09-23T07:59:09.320Z,11.29
2022-09-23T08:01:40.075Z,11.36
2022-09-23T08:04:13.148Z,11.45
2022-09-23T08:06:46.314Z,11.55
2022-09-23T08:09:16.088Z,11.64
2022-09-23T08:11:43.853Z,11.64
2022-09-23T08:14:13.670Z,11.69
2022-09-23T08:16:42.482Z,11.81
2022-09-23T08:19:10.278Z,11.89
2022-09-23T08:21:39.582Z,11.99
2022-09-23T08:24:09.531Z,12.07
2022-09-23T08:26:38.232Z,12.23
2022-09-23T08:29:06.188Z,12.37
2022-09-23T08:31:34.155Z,12.44
2022-09-23T08:34:02.510Z,12.48
2022-09-23T08:36:31.687Z,12.48
2022-09-23T08:38:59.463Z,12.56
2022-09-23T08:41:33.162Z,12.70
2022-09-23T08:44:26.787Z,12.83
2022-09-23T08:47:05.227Z,12.93
2022-09-23T08:49:46.011Z,13.34
2022-09-23T08:52:37.560Z,15.09
2022-09-23T08:55:06.634Z,17.52
2022-09-23T09:00:54.751Z,22.11
2022-09-23T09:03:26.309Z,23.34
2022-09-23T09:05:56.922Z,24.72
2022-09-23T09:08:35.387Z,24.67
2022-09-23T09:11:03.501Z,24.87
2022-09-23T09:13:34.601Z,25.15
2022-09-23T09:16:59.365Z,25.82
2022-09-23T09:19:54.068Z,25.25
2022-09-23T09:22:52.662Z,24.66
2022-09-23T09:25:33.482Z,24.48
2022-09-23T09:28:11.077Z,23.98
2022-09-23T09:30:39.270Z,22.66
2022-09-23T09:33:23.202Z,21.82
2022-09-23T09:36:20.780Z,21.18
2022-09-23T09:38:48.721Z,22.96
2022-09-23T09:41:18.300Z,24.56
2022-09-23T09:43:56.368Z,26.07
2022-09-23T09:46:45.204Z,27.24
2022-09-23T09:49:49.636Z,27.82
2022-09-23T09:52:29.936Z,28.10
2022-09-23T09:55:12.953Z,29.50
2022-09-23T09:57:49.738Z,30.38
2022-09-23T10:00:38.474Z,28.90
2022-09-23T10:03:39.545Z,27.17
2022-09-23T10:06:34.648Z,25.27
2022-09-23T10:09:04.980Z,23.91
2022-09-23T10:11:33.559Z,24.43
